createdAt,value
2018-09-04T00:11:16.871Z,18.4
2018-09-04T00:26:38.059Z,18.2
2018-09-04T00:41:55.764Z,17.9
2018-09-04T00:57:13.265Z,17.7
2018-09-04T01:12:17.956Z,17.6
2018-09-04T01:27:47.690Z,17.4
2018-09-04T01:43:04.904Z,17.3
2018-09-04T01:58:22.022Z,17.1
2018-09-04T02:13:39.124Z,17
2018-09-04T02:28:47.710Z,16.9
2018-09-04T02:44:13.462Z,16.7
2018-09-04T02:59:32.641Z,16.6
2018-09-04T03:14:47.847Z,16.5
2018-09-04T03:30:04.416Z,16.4
2018-09-04T03:45:16.761Z,16.3
2018-09-04T04:00:37.301Z,16.1
2018-09-04T04:15:54.052Z,16
2018-09-04T04:31:11.056Z,16.1
2018-09-04T04:46:15.016Z,16
2018-09-04T05:01:44.105Z,16
2018-09-04T05:17:00.920Z,16.1
2018-09-04T05:32:17.666Z,16.2
2018-09-04T05:47:34.361Z,16.5
2018-09-04T06:02:46.117Z,16.7
2018-09-04T06:18:08.586Z,16.9
2018-09-04T06:33:25.765Z,17.2
2018-09-04T06:48:42.877Z,17.4
2018-09-04T07:03:58.386Z,17.5
2018-09-04T07:19:17.586Z,18
2018-09-04T07:34:35.373Z,18.5
2018-09-04T07:49:39.987Z,19
2018-09-04T08:05:11.417Z,19.9
2018-09-04T08:20:29.988Z,20.2
2018-09-04T08:35:48.723Z,20.7
2018-09-04T08:50:52.387Z,21.2
2018-09-04T09:06:27.379Z,21.7
2018-09-04T09:21:45.687Z,22.2
2018-09-04T09:37:05.872Z,22.8
2018-09-04T09:52:25.536Z,23.2
2018-09-04T10:07:39.918Z,23.7
2018-09-04T10:23:05.536Z,24.8
2018-09-04T10:38:27.081Z,25.2
2018-09-04T10:53:47.165Z,25.3
2018-09-04T11:08:54.724Z,25.2
2018-09-04T11:24:28.433Z,25
2018-09-04T11:39:50.224Z,26.2
2018-09-04T11:55:11.384Z,26.3
2018-09-04T12:10:33.764Z,26.6
2018-09-04T12:25:43.999Z,27.4
2018-09-04T12:41:18.516Z,26.8
2018-09-04T12:56:41.001Z,26.3
2018-09-04T13:12:02.720Z,26.2
2018-09-04T13:27:24.488Z,26.6
2018-09-04T13:42:34.290Z,27.5
2018-09-04T13:58:09.246Z,28.2
2018-09-04T14:13:35.327Z,28.1
2018-09-04T14:29:06.964Z,28.5
2018-09-04T14:44:23.805Z,28.7
2018-09-04T14:59:28.564Z,28.2
2018-09-04T15:15:03.149Z,27.7
2018-09-04T15:30:38.240Z,27.9
2018-09-04T15:46:03.291Z,28
2018-09-04T16:01:28.029Z,27.5
2018-09-04T16:16:50.905Z,27
2018-09-04T16:31:54.952Z,26.7
2018-09-04T16:47:29.302Z,26.2
2018-09-04T17:02:57.537Z,26
2018-09-04T17:18:19.486Z,25.5
2018-09-04T17:33:41.026Z,25.1
2018-09-04T17:49:02.077Z,24.6
2018-09-04T18:04:16.687Z,24.1
2018-09-04T18:19:43.360Z,23.8
2018-09-04T18:35:04.762Z,23.4
2018-09-04T18:50:23.475Z,23
2018-09-04T19:05:43.641Z,22.7
2018-09-04T19:20:58.455Z,22.3
2018-09-04T19:36:23.589Z,22
2018-09-04T19:51:41.133Z,21.7
2018-09-04T20:07:00.365Z,21.5
2018-09-04T20:22:04.506Z,21.3
2018-09-04T20:37:36.035Z,21.1
2018-09-04T20:52:56.635Z,20.9
2018-09-04T21:08:15.250Z,20.5
2018-09-04T21:23:33.864Z,20.4
2018-09-04T21:38:41.144Z,20.3
2018-09-04T21:54:10.860Z,20
2018-09-04T22:09:29.277Z,19.7
2018-09-04T22:24:47.300Z,19.5
2018-09-04T22:40:05.707Z,19.3
2018-09-04T22:55:17.024Z,19.1
2018-09-04T23:10:41.601Z,18.9
2018-09-04T23:25:59.705Z,18.5
2018-09-04T23:41:17.535Z,18.3
2018-09-04T23:56:35.770Z,18.1
